createdAt,value
2018-04-17T00:02:18.010Z,99.99
2018-04-17T00:07:16.771Z,99.99
2018-04-17T00:12:11.751Z,99.99
2018-04-17T00:17:11.931Z,99.99
2018-04-17T00:22:08.172Z,99.99
2018-04-17T00:27:07.631Z,99.99
2018-04-17T00:32:02.566Z,99.99
2018-04-17T00:36:59.572Z,99.99
2018-04-17T00:41:56.455Z,99.99
2018-04-17T00:46:53.502Z,99.99
2018-04-17T00:51:49.868Z,99.99
2018-04-17T00:56:45.138Z,99.99
2018-04-17T01:01:41.163Z,99.99
2018-04-17T01:06:41.782Z,99.99
2018-04-17T01:11:37.870Z,99.99
2018-04-17T01:16:37.443Z,99.99
2018-04-17T01:21:32.632Z,99.99
2018-04-17T01:26:28.599Z,99.99
2018-04-17T01:31:24.098Z,99.99
2018-04-17T01:36:20.905Z,99.99
2018-04-17T01:41:22.184Z,99.99
2018-04-17T01:46:16.766Z,99.99
2018-04-17T01:51:16.389Z,99.99
2018-04-17T01:56:12.416Z,99.99
2018-04-17T02:01:11.749Z,99.99
2018-04-17T02:06:10.211Z,99.99
2018-04-17T02:11:06.474Z,99.99
2018-04-17T02:16:01.910Z,99.99
2018-04-17T02:20:57.563Z,99.99
2018-04-17T02:25:57.154Z,99.99
2018-04-17T02:30:53.623Z,99.99
2018-04-17T02:35:49.338Z,99.99
2018-04-17T02:40:49.058Z,99.99
2018-04-17T02:45:45.179Z,99.99
2018-04-17T02:50:46.453Z,99.99
2018-04-17T02:55:45.005Z,99.99
2018-04-17T03:00:39.860Z,99.99
2018-04-17T03:05:39.583Z,99.99
2018-04-17T03:10:35.792Z,99.99
2018-04-17T03:15:36.351Z,99.99
2018-04-17T03:20:35.976Z,99.99
2018-04-17T03:25:31.221Z,99.99
2018-04-17T03:30:29.127Z,99.99
2018-04-17T03:35:28.245Z,99.99
2018-04-17T03:40:23.015Z,99.99
2018-04-17T03:45:18.976Z,99.99
2018-04-17T03:50:18.836Z,99.99
2018-04-17T03:55:17.960Z,99.99
2018-04-17T04:00:13.795Z,99.99
2018-04-17T04:05:09.803Z,99.99
2018-04-17T04:10:07.072Z,99.99
2018-04-17T04:15:07.594Z,99.99
2018-04-17T04:20:06.752Z,99.99
2018-04-17T04:25:02.767Z,99.99
2018-04-17T04:29:59.401Z,99.99
2018-04-17T04:34:54.959Z,99.99
2018-04-17T04:39:54.468Z,99.99
2018-04-17T04:44:49.453Z,99.99
2018-04-17T04:49:46.202Z,99.99
2018-04-17T04:54:43.300Z,99.99
2018-04-17T04:59:40.417Z,99.99
2018-04-17T05:04:41.147Z,99.99
2018-04-17T05:09:37.193Z,99.99
2018-04-17T05:14:32.547Z,99.99
2018-04-17T05:19:29.667Z,99.99
2018-04-17T05:24:26.453Z,99.99
2018-04-17T05:29:22.177Z,99.99
2018-04-17T05:34:18.115Z,99.99
2018-04-17T05:39:14.610Z,99.99
2018-04-17T05:44:10.528Z,99.99
2018-04-17T05:49:06.380Z,99.99
2018-04-17T05:54:02.546Z,99.99
2018-04-17T05:58:58.670Z,99.99
2018-04-17T06:03:55.131Z,99.99
2018-04-17T06:08:51.945Z,99.99
2018-04-17T06:13:47.897Z,99.99
2018-04-17T06:18:44.400Z,99.99
2018-04-17T06:23:41.394Z,99.99
2018-04-17T06:28:37.975Z,99.99
2018-04-17T06:33:33.591Z,99.99
2018-04-17T06:38:29.512Z,99.99
2018-04-17T06:43:30.267Z,99.99
2018-04-17T06:48:26.107Z,99.99
2018-04-17T06:53:21.977Z,99.99
2018-04-17T06:58:18.097Z,99.99
2018-04-17T07:03:18.905Z,99.99
2018-04-17T07:08:17.300Z,99.99
2018-04-17T07:13:13.361Z,99.99
2018-04-17T07:18:09.110Z,99.99
2018-04-17T07:23:06.444Z,99.99
2018-04-17T07:28:02.625Z,99.99
2018-04-17T07:32:59.047Z,99.99
2018-04-17T07:37:56.113Z,99.99
2018-04-17T07:42:52.931Z,99.99
2018-04-17T07:47:49.681Z,99.99
2018-04-17T07:52:45.881Z,99.99
2018-04-17T07:57:42.029Z,99.99
2018-04-17T08:02:40.685Z,99.99
2018-04-17T08:07:39.242Z,92.72
2018-04-17T08:12:36.365Z,83.30
2018-04-17T08:17:37.510Z,77.23
2018-04-17T08:22:33.559Z,73.99
2018-04-17T08:27:35.109Z,72.11
2018-04-17T08:32:34.201Z,71.69
2018-04-17T08:37:29.285Z,71.87
2018-04-17T08:42:26.147Z,72.74
2018-04-17T08:47:25.721Z,73.96
2018-04-17T08:52:20.907Z,73.25
2018-04-17T08:57:16.241Z,74.94
2018-04-17T09:02:15.911Z,75.32
2018-04-17T09:07:10.795Z,74.21
2018-04-17T09:12:06.599Z,71.87
2018-04-17T09:17:02.117Z,71.10
2018-04-17T09:21:57.865Z,70.90
2018-04-17T09:26:54.261Z,70.14
2018-04-17T09:31:51.238Z,68.89
2018-04-17T09:36:48.165Z,67.19
2018-04-17T09:41:44.250Z,67.32
2018-04-17T09:46:40.597Z,67.68
2018-04-17T09:51:43.397Z,65.46
2018-04-17T09:56:39.905Z,64.76
2018-04-17T10:01:40.255Z,64.28
2018-04-17T10:06:39.840Z,62.96
2018-04-17T10:16:42.316Z,58.78
2018-04-17T10:21:39.418Z,58.14
2018-04-17T10:26:41.011Z,55.60
2018-04-17T10:31:36.719Z,55.82
2018-04-17T10:36:39.316Z,54.31
2018-04-17T10:41:39.829Z,54.69
2018-04-17T10:46:35.080Z,54.66
2018-04-17T10:51:34.584Z,56.01
2018-04-17T10:56:30.725Z,53.37
2018-04-17T11:01:30.677Z,54.40
2018-04-17T11:06:28.644Z,51.92
2018-04-17T11:11:29.701Z,52.98
2018-04-17T11:16:25.719Z,53.53
2018-04-17T11:21:25.899Z,51.82
2018-04-17T11:26:26.520Z,51.27
2018-04-17T11:31:27.078Z,51.34
2018-04-17T11:36:25.580Z,49.85
2018-04-17T11:41:27.701Z,49.27
2018-04-17T11:46:27.760Z,50.40
2018-04-17T11:51:27.445Z,51.87
2018-04-17T11:56:27.688Z,50.21
2018-04-17T12:01:22.713Z,50.79
2018-04-17T12:06:22.699Z,53.01
2018-04-17T12:11:21.172Z,51.75
2018-04-17T12:16:15.939Z,53.17
2018-04-17T12:21:13.946Z,54.66
2018-04-17T12:26:10.506Z,53.31
2018-04-17T12:31:06.843Z,55.44
2018-04-17T12:36:06.782Z,53.22
2018-04-17T12:41:06.727Z,55.15
2018-04-17T12:46:01.590Z,53.05
2018-04-17T12:51:02.286Z,51.89
2018-04-17T12:55:58.428Z,52.19
2018-04-17T13:00:53.826Z,54.11
2018-04-17T13:05:50.235Z,54.74
2018-04-17T13:10:45.733Z,55.31
2018-04-17T13:15:43.284Z,54.74
2018-04-17T13:20:39.412Z,54.74
2018-04-17T13:25:40.101Z,55.31
2018-04-17T13:30:39.199Z,54.93
2018-04-17T13:35:34.578Z,55.05
2018-04-17T13:40:31.619Z,51.84
2018-04-17T13:45:27.173Z,53.00
2018-04-17T13:50:23.608Z,53.87
2018-04-17T13:55:20.631Z,54.25
2018-04-17T14:00:16.114Z,53.45
2018-04-17T14:05:11.817Z,53.55
2018-04-17T14:10:10.769Z,53.09
2018-04-17T14:15:07.257Z,53.51
2018-04-17T14:20:07.151Z,51.87
2018-04-17T14:25:03.883Z,51.46
2018-04-17T14:30:00.837Z,52.04
2018-04-17T14:34:56.383Z,53.58
2018-04-17T14:39:52.718Z,54.16
2018-04-17T14:44:48.837Z,53.96
2018-04-17T14:49:48.625Z,53.09
2018-04-17T14:54:47.834Z,52.81
2018-04-17T14:59:43.995Z,53.09
2018-04-17T15:04:45.710Z,53.00
2018-04-17T15:09:40.725Z,52.73
2018-04-17T15:14:36.907Z,53.70
2018-04-17T15:19:34.175Z,52.83
2018-04-17T15:24:29.936Z,52.61
2018-04-17T15:29:29.734Z,54.74
2018-04-17T15:34:27.034Z,52.91
2018-04-17T15:39:27.632Z,54.93
2018-04-17T15:44:27.517Z,54.44
2018-04-17T15:49:26.986Z,54.83
2018-04-17T15:54:23.955Z,54.44
2018-04-17T15:59:20.493Z,53.39
2018-04-17T16:04:24.415Z,53.89
2018-04-17T16:09:25.309Z,54.83
2018-04-17T16:14:21.615Z,53.09
2018-04-17T16:19:21.240Z,54.74
2018-04-17T16:24:21.177Z,54.06
2018-04-17T16:29:22.193Z,54.93
2018-04-17T16:34:16.684Z,54.93
2018-04-17T16:39:13.489Z,55.70
2018-04-17T16:44:10.049Z,55.41
2018-04-17T16:49:07.724Z,54.93
2018-04-17T16:54:08.363Z,57.05
2018-04-17T16:59:07.275Z,56.73
2018-04-17T17:04:03.529Z,55.19
2018-04-17T17:09:04.062Z,54.42
2018-04-17T17:14:05.688Z,54.42
2018-04-17T17:19:06.389Z,55.00
2018-04-17T17:24:05.168Z,55.96
2018-04-17T17:29:01.119Z,58.95
2018-04-17T17:33:57.977Z,58.63
2018-04-17T17:38:54.022Z,57.67
2018-04-17T17:43:51.393Z,62.87
2018-04-17T17:48:47.536Z,61.77
2018-04-17T17:53:43.671Z,58.22
2018-04-17T17:58:39.643Z,58.02
2018-04-17T18:03:41.398Z,63.31
2018-04-17T18:08:36.666Z,59.75
2018-04-17T18:13:32.962Z,67.99
2018-04-17T18:18:34.826Z,63.38
2018-04-17T18:23:30.657Z,63.92
2018-04-17T18:28:31.111Z,71.14
2018-04-17T18:33:31.245Z,72.83
2018-04-17T18:38:29.572Z,71.39
2018-04-17T18:43:29.723Z,69.24
2018-04-17T18:48:28.661Z,78.94
2018-04-17T18:53:27.443Z,69.81
2018-04-17T18:58:29.356Z,70.36
2018-04-17T19:03:28.585Z,82.45
2018-04-17T19:08:24.798Z,80.63
2018-04-17T19:13:25.108Z,81.10
2018-04-17T19:18:24.771Z,77.94
2018-04-17T19:23:27.688Z,80.73
2018-04-17T19:28:28.665Z,77.42
2018-04-17T19:33:24.875Z,81.74
2018-04-17T19:38:24.725Z,88.17
2018-04-17T19:43:24.438Z,90.18
2018-04-17T19:48:29.648Z,88.07
2018-04-17T19:53:31.865Z,87.40
2018-04-17T19:58:33.012Z,86.72
2018-04-17T20:03:33.181Z,86.92
2018-04-17T20:08:30.458Z,87.07
2018-04-17T20:13:30.614Z,89.85
2018-04-17T20:18:25.418Z,90.52
2018-04-17T20:23:27.453Z,90.33
2018-04-17T20:28:27.898Z,90.52
2018-04-17T20:33:29.899Z,94.84
2018-04-17T20:38:29.222Z,92.34
2018-04-17T20:43:29.200Z,91.53
2018-04-17T20:48:25.120Z,94.02
2018-04-17T20:53:23.382Z,91.67
2018-04-17T20:58:19.078Z,95.03
2018-04-17T21:08:20.405Z,97.61
2018-04-17T21:13:20.311Z,98.28
2018-04-17T21:18:19.658Z,99.99
2018-04-17T21:23:20.585Z,99.99
2018-04-17T21:28:19.983Z,99.99
2018-04-17T21:33:21.705Z,99.99
2018-04-17T21:38:19.900Z,99.99
2018-04-17T21:43:16.445Z,99.99
2018-04-17T21:48:17.278Z,99.99
2018-04-17T21:53:18.757Z,99.99
2018-04-17T21:58:18.288Z,99.99
2018-04-17T22:03:15.726Z,99.99
2018-04-17T22:08:14.973Z,99.99
2018-04-17T22:13:13.865Z,99.99
2018-04-17T22:18:14.957Z,99.99
2018-04-17T22:23:10.255Z,99.99
2018-04-17T22:28:12.630Z,99.99
2018-04-17T22:33:09.495Z,99.99
2018-04-17T22:38:10.974Z,99.99
2018-04-17T22:43:09.575Z,99.99
2018-04-17T22:48:10.942Z,99.99
2018-04-17T22:53:08.109Z,99.99
2018-04-17T22:58:10.399Z,99.99
2018-04-17T23:03:13.495Z,99.99
2018-04-17T23:08:12.921Z,99.99
2018-04-17T23:13:13.265Z,99.99
2018-04-17T23:18:13.196Z,99.99
2018-04-17T23:23:09.644Z,99.99
2018-04-17T23:28:08.453Z,99.99
2018-04-17T23:33:08.158Z,99.99
2018-04-17T23:38:04.828Z,99.99
2018-04-17T23:43:05.570Z,99.99
2018-04-17T23:48:01.108Z,99.99
2018-04-17T23:53:02.688Z,99.99
